Time;durP1;ratioP1;P1;durP2;ratioP2;P2;SDS_P1;SDS_P2;PMS_P1;PMS_P2;Temp;Humidity;BMP_temperature;BMP_pressure;BME280_temperature;BME280_humidity;BME280_pressure;Samples;Min_cycle;Max_cycle;Signal;HPM_P1;HPM_P2
2021/07/29 04:01:49;;;;;;;3.43;3.30;;;17.40;99.90;;;;;;5294122;23;20501;-71
2021/07/29 04:04:15;;;;;;;3.93;3.70;;;17.40;99.90;;;;;;4935953;29;20516;-71
2021/07/29 04:06:42;;;;;;;3.43;3.23;;;17.40;99.90;;;;;;4935773;29;20553;-71
2021/07/29 04:09:09;;;;;;;2.40;2.40;;;17.40;99.90;;;;;;4917858;29;21028;-71
2021/07/29 04:11:35;;;;;;;3.00;2.90;;;17.40;99.90;;;;;;4917571;29;20508;-70
2021/07/29 04:14:02;;;;;;;3.57;3.37;;;17.40;99.90;;;;;;4917652;29;20471;-72
2021/07/29 04:16:29;;;;;;;3.40;3.30;;;17.30;99.90;;;;;;4917699;29;20471;-72
2021/07/29 04:18:56;;;;;;;3.20;3.03;;;17.30;99.90;;;;;;4917459;29;20921;-71
2021/07/29 04:21:23;;;;;;;3.17;3.07;;;17.30;99.90;;;;;;4917449;29;20502;-71
2021/07/29 04:23:50;;;;;;;3.33;3.23;;;17.30;99.90;;;;;;4917353;29;20916;-71
2021/07/29 04:26:16;;;;;;;3.20;3.10;;;17.30;99.90;;;;;;4917386;29;20470;-71
2021/07/29 04:28:43;;;;;;;3.27;3.17;;;17.30;99.90;;;;;;4917803;29;20473;-71
2021/07/29 04:31:10;;;;;;;3.33;3.23;;;17.30;99.90;;;;;;4917474;29;20545;-71
2021/07/29 04:33:36;;;;;;;3.57;3.27;;;17.30;99.90;;;;;;4917419;29;20961;-71
2021/07/29 04:36:07;;;;;;;3.30;3.20;;;17.30;99.90;;;;;;4917145;29;20625;-71
2021/07/29 04:38:35;;;;;;;3.67;3.50;;;17.30;99.90;;;;;;4917463;29;20978;-71
2021/07/29 04:41:03;;;;;;;3.10;2.90;;;17.30;99.90;;;;;;4916838;29;20546;-71
2021/07/29 04:43:29;;;;;;;2.90;2.80;;;17.30;99.90;;;;;;4917602;29;20473;-70
2021/07/29 04:45:56;;;;;;;3.43;3.23;;;17.30;99.90;;;;;;4917123;29;20471;-71
2021/07/29 04:48:23;;;;;;;3.60;2.93;;;17.30;99.90;;;;;;4917505;29;20478;-71
2021/07/29 04:50:49;;;;;;;3.07;2.87;;;17.40;99.90;;;;;;4916537;29;20490;-71
2021/07/29 04:53:17;;;;;;;3.23;3.13;;;17.40;99.90;;;;;;4919017;29;20507;-70
2021/07/29 04:55:44;;;;;;;3.00;2.80;;;17.40;99.90;;;;;;4926566;29;20526;-71
2021/07/29 04:58:10;;;;;;;3.07;2.87;;;17.30;99.90;;;;;;4918163;29;20474;-71
2021/07/29 05:00:37;;;;;;;3.17;3.03;;;17.40;99.90;;;;;;4916820;29;21032;-71
2021/07/29 05:03:04;;;;;;;3.43;3.33;;;17.40;99.90;;;;;;4917054;29;20593;-72
2021/07/29 05:05:31;;;;;;;2.67;2.57;;;17.40;99.90;;;;;;4916931;29;20467;-72
2021/07/29 05:07:57;;;;;;;2.90;2.90;;;17.40;99.90;;;;;;4917248;29;20981;-72
2021/07/29 05:10:25;;;;;;;3.70;3.40;;;17.40;99.90;;;;;;4915462;29;20474;-72
2021/07/29 05:12:52;;;;;;;2.57;2.47;;;17.50;99.90;;;;;;4916881;29;20470;-72
2021/07/29 05:15:19;;;;;;;2.53;2.43;;;17.50;99.90;;;;;;4916484;29;20883;-71
2021/07/29 05:17:45;;;;;;;3.00;2.80;;;17.50;99.90;;;;;;4917506;29;20482;-71
2021/07/29 05:20:12;;;;;;;4.03;2.63;;;17.50;99.90;;;;;;4922867;29;20481;-71
2021/07/29 05:22:39;;;;;;;2.73;2.73;;;17.40;99.90;;;;;;4935812;29;20473;-71
2021/07/29 05:25:06;;;;;;;2.80;2.70;;;17.40;99.90;;;;;;4920847;29;20462;-71
2021/07/29 05:27:34;;;;;;;2.80;2.63;;;17.40;99.90;;;;;;4917840;29;20589;-70
2021/07/29 05:30:01;;;;;;;3.03;2.93;;;17.40;99.90;;;;;;4925074;29;20516;-71
2021/07/29 05:32:27;;;;;;;3.10;3.03;;;17.40;99.90;;;;;;4935409;29;20772;-71
2021/07/29 05:34:54;;;;;;;6.40;2.20;;;17.40;99.90;;;;;;4919523;29;20470;-69
2021/07/29 05:37:21;;;;;;;2.50;2.40;;;17.50;99.90;;;;;;4929316;29;20860;-70
2021/07/29 05:39:47;;;;;;;2.90;2.80;;;17.50;99.90;;;;;;4925179;29;20490;-69
2021/07/29 05:42:20;;;;;;;2.73;2.30;;;17.50;99.90;;;;;;4916190;29;20495;-69
2021/07/29 05:44:48;;;;;;;2.93;2.80;;;17.60;99.90;;;;;;4917949;29;20530;-69
2021/07/29 05:47:14;;;;;;;3.00;2.90;;;17.60;99.90;;;;;;4932110;29;20525;-69
2021/07/29 05:49:41;;;;;;;3.03;2.60;;;17.60;99.90;;;;;;4924378;29;20534;-69
2021/07/29 05:52:08;;;;;;;2.17;2.17;;;17.70;99.90;;;;;;4916290;29;20975;-69
2021/07/29 05:54:34;;;;;;;2.67;2.63;;;17.80;99.90;;;;;;4919283;29;20478;-72
2021/07/29 05:57:01;;;;;;;2.57;2.50;;;18.10;99.90;;;;;;4926500;29;20521;-69
2021/07/29 05:59:27;;;;;;;2.67;2.57;;;18.20;99.90;;;;;;4927468;29;20946;-69
2021/07/29 06:01:55;;;;;;;3.70;2.50;;;18.40;99.90;;;;;;4931526;29;20664;-69
2021/07/29 06:04:22;;;;;;;2.17;2.07;;;18.70;99.90;;;;;;4931582;29;20465;-69
2021/07/29 06:06:49;;;;;;;2.37;2.30;;;19.10;99.90;;;;;;4934455;29;20496;-69
2021/07/29 06:09:15;;;;;;;2.40;2.40;;;19.10;99.90;;;;;;4929480;29;20497;-71
2021/07/29 06:11:42;;;;;;;2.20;2.03;;;19.00;99.90;;;;;;4918920;29;20501;-70
2021/07/29 06:14:09;;;;;;;2.40;2.40;;;19.50;99.90;;;;;;4925071;29;20830;-70
2021/07/29 06:16:35;;;;;;;2.47;2.43;;;20.20;99.90;;;;;;4916160;29;20478;-70
2021/07/29 06:19:07;;;;;;;1.87;1.77;;;20.80;99.90;;;;;;4914960;29;20564;-70
2021/07/29 06:21:34;;;;;;;3.70;2.43;;;21.10;99.90;;;;;;4915081;29;20505;-71
2021/07/29 06:24:02;;;;;;;2.27;2.17;;;21.90;99.90;;;;;;4922363;29;20529;-71
2021/07/29 06:26:28;;;;;;;2.43;2.33;;;22.20;99.90;;;;;;4926893;29;20556;-71
2021/07/29 06:28:55;;;;;;;2.40;2.20;;;22.40;99.90;;;;;;4925922;29;20463;-71
2021/07/29 06:31:22;;;;;;;2.20;2.20;;;22.40;99.90;;;;;;4927254;29;20518;-70
2021/07/29 06:33:48;;;;;;;2.40;2.30;;;22.40;99.90;;;;;;4914647;29;20881;-71
2021/07/29 06:36:16;;;;;;;2.17;2.03;;;22.50;99.90;;;;;;4916198;29;21040;-70
2021/07/29 06:38:43;;;;;;;2.70;2.50;;;22.80;99.90;;;;;;4915077;29;20466;-71
2021/07/29 06:41:11;;;;;;;1.87;1.77;;;22.80;99.90;;;;;;4916048;29;20498;-70
2021/07/29 06:43:38;;;;;;;2.33;2.20;;;22.40;99.90;;;;;;4926728;29;20477;-70
2021/07/29 06:46:05;;;;;;;2.13;1.93;;;22.30;99.90;;;;;;4918501;29;20474;-70
2021/07/29 06:48:31;;;;;;;2.20;2.10;;;22.50;99.90;;;;;;4916338;29;20553;-70
2021/07/29 06:51:02;;;;;;;2.67;2.57;;;22.50;99.90;;;;;;4915451;29;20490;-70
2021/07/29 06:53:30;;;;;;;2.17;2.03;;;22.80;99.90;;;;;;4921540;29;20858;-70
2021/07/29 06:55:59;;;;;;;2.43;2.23;;;23.10;99.90;;;;;;4913888;29;20467;-69
2021/07/29 06:58:25;;;;;;;3.43;2.20;;;23.50;99.90;;;;;;4914749;29;20491;-69
2021/07/29 07:00:52;;;;;;;3.67;2.50;;;24.10;99.90;;;;;;4920620;29;20491;-69
2021/07/29 07:03:19;;;;;;;2.07;1.97;;;24.00;99.90;;;;;;4913429;29;20841;-68
2021/07/29 07:05:46;;;;;;;2.67;2.47;;;23.70;99.90;;;;;;4912210;29;20877;-69
2021/07/29 07:08:13;;;;;;;2.30;2.07;;;23.70;99.90;;;;;;4925164;29;21001;-69
2021/07/29 07:10:42;;;;;;;1.90;1.90;;;24.10;99.90;;;;;;4926754;29;20501;-70
2021/07/29 07:13:08;;;;;;;1.77;1.77;;;24.60;99.90;;;;;;4914174;29;20996;-71
2021/07/29 07:15:35;;;;;;;2.70;2.37;;;25.00;99.90;;;;;;4920784;29;20477;-70
2021/07/29 07:18:02;;;;;;;2.33;2.23;;;25.40;99.90;;;;;;4912026;29;20492;-69
2021/07/29 07:20:28;;;;;;;2.20;2.10;;;25.60;99.90;;;;;;4916216;29;21187;-68
2021/07/29 07:22:55;;;;;;;2.70;1.83;;;25.40;99.90;;;;;;4916081;29;20479;-70
2021/07/29 07:25:22;;;;;;;1.83;1.83;;;25.10;99.90;;;;;;4917935;29;20483;-67
2021/07/29 07:27:50;;;;;;;1.60;1.50;;;25.10;99.90;;;;;;4922077;29;20557;-68
2021/07/29 07:30:16;;;;;;;1.97;1.87;;;25.30;99.90;;;;;;4918524;29;20903;-68
2021/07/29 07:32:43;;;;;;;1.93;1.80;;;25.00;99.90;;;;;;4921265;29;20527;-69
2021/07/29 07:35:11;;;;;;;2.10;2.00;;;24.30;99.90;;;;;;4924686;29;20513;-69
2021/07/29 07:37:39;;;;;;;2.67;2.17;;;23.70;99.90;;;;;;4921930;29;20482;-69
2021/07/29 07:40:07;;;;;;;2.10;2.10;;;23.60;99.90;;;;;;4927003;29;20497;-69
2021/07/29 07:42:33;;;;;;;2.67;2.40;;;23.60;99.90;;;;;;4916485;29;20478;-69
2021/07/29 07:45:01;;;;;;;2.57;2.37;;;23.40;99.90;;;;;;4919082;29;20466;-70
2021/07/29 07:47:29;;;;;;;2.20;2.20;;;23.00;99.90;;;;;;4929428;29;21000;-69
2021/07/29 07:49:55;;;;;;;2.83;2.50;;;22.90;99.90;;;;;;4919694;29;20466;-69
2021/07/29 07:52:22;;;;;;;2.63;2.37;;;23.00;99.90;;;;;;4927204;29;20540;-69
2021/07/29 07:54:49;;;;;;;2.30;2.30;;;22.50;99.90;;;;;;4919873;29;20528;-69
2021/07/29 07:57:16;;;;;;;2.37;2.20;;;22.30;99.90;;;;;;4923168;29;20471;-70
2021/07/29 07:59:43;;;;;;;2.37;2.37;;;23.00;99.90;;;;;;4922420;29;20910;-69
2021/07/29 08:02:13;;;;;;;1.87;1.73;;;23.30;99.90;;;;;;4920822;29;20799;-70
2021/07/29 08:04:40;;;;;;;2.50;2.30;;;23.20;99.90;;;;;;4921607;29;20558;-70
2021/07/29 08:07:06;;;;;;;2.90;2.53;;;22.90;99.90;;;;;;4927183;29;20529;-69
2021/07/29 08:09:33;;;;;;;2.40;2.20;;;22.60;99.90;;;;;;4920911;29;20552;-69
2021/07/29 08:12:00;;;;;;;2.00;1.93;;;22.60;99.90;;;;;;4920239;29;20485;-69
2021/07/29 08:14:26;;;;;;;2.90;2.60;;;22.40;99.90;;;;;;4921701;29;20470;-69
2021/07/29 08:16:53;;;;;;;2.50;2.30;;;21.90;99.90;;;;;;4922861;29;20466;-69
2021/07/29 08:19:21;;;;;;;2.70;2.60;;;21.60;99.90;;;;;;4928191;29;20966;-69
2021/07/29 08:21:48;;;;;;;2.67;2.47;;;21.60;99.90;;;;;;4919126;29;20700;-69
2021/07/29 08:24:14;;;;;;;4.17;3.30;;;21.70;99.90;;;;;;4920889;29;20476;-70
2021/07/29 08:26:41;;;;;;;2.67;2.57;;;21.70;99.90;;;;;;4918623;29;20485;-70
2021/07/29 08:29:08;;;;;;;2.70;2.60;;;21.40;99.90;;;;;;4927993;29;20532;-70
2021/07/29 08:31:34;;;;;;;2.43;2.33;;;21.20;99.90;;;;;;4922983;29;20486;-71
2021/07/29 08:34:01;;;;;;;3.33;3.03;;;21.10;99.90;;;;;;4916566;29;20474;-70
2021/07/29 08:36:29;;;;;;;3.20;3.10;;;21.10;99.90;;;;;;4921749;29;20541;-69
2021/07/29 08:38:56;;;;;;;2.63;2.63;;;21.00;99.90;;;;;;4916704;29;21026;-68
2021/07/29 08:41:23;;;;;;;3.70;3.40;;;20.80;99.90;;;;;;4923654;29;20489;-69
2021/07/29 08:43:49;;;;;;;4.00;3.80;;;20.90;99.90;;;;;;4935572;29;20480;-70
2021/07/29 08:46:19;;;;;;;3.40;3.07;;;20.90;99.90;;;;;;4933019;29;20474;-69
2021/07/29 08:48:47;;;;;;;3.20;3.00;;;21.10;99.90;;;;;;4916999;29;20474;-69
2021/07/29 08:51:16;;;;;;;3.27;3.07;;;21.00;99.90;;;;;;4916118;29;20497;-69
2021/07/29 08:53:44;;;;;;;3.17;2.90;;;21.10;99.90;;;;;;4932690;29;20558;-68
2021/07/29 08:56:13;;;;;;;3.80;3.20;;;21.20;99.90;;;;;;4929255;29;20479;-70
2021/07/29 08:58:40;;;;;;;2.77;2.77;;;21.40;99.90;;;;;;4916548;29;20557;-70
2021/07/29 09:01:09;;;;;;;3.50;3.30;;;21.70;99.90;;;;;;4918601;29;20500;-70
2021/07/29 09:03:36;;;;;;;2.77;2.73;;;21.80;99.90;;;;;;4916137;29;20542;-70
2021/07/29 09:06:06;;;;;;;3.20;3.00;;;21.80;99.90;;;;;;4921142;29;20838;-69
2021/07/29 09:08:48;;;;;;;2.70;2.60;;;21.50;99.90;;;;;;4918037;29;20478;-70
2021/07/29 09:11:29;;;;;;;3.00;2.50;;;21.30;99.90;;;;;;4916028;29;20588;-69
2021/07/29 09:14:12;;;;;;;2.73;2.53;;;21.40;99.90;;;;;;4917065;29;20466;-70
2021/07/29 09:17:01;;;;;;;3.40;3.30;;;21.60;99.90;;;;;;4933918;29;20456;-69
2021/07/29 09:19:33;;;;;;;2.53;2.50;;;21.70;99.90;;;;;;4927786;29;20544;-70
2021/07/29 09:22:08;;;;;;;2.80;2.70;;;21.80;99.90;;;;;;4928694;29;20502;-70
2021/07/29 09:24:36;;;;;;;2.97;2.87;;;21.60;99.90;;;;;;4916020;29;20480;-70
2021/07/29 09:27:03;;;;;;;2.80;2.70;;;21.60;99.90;;;;;;4921498;29;20793;-70
2021/07/29 09:29:30;;;;;;;3.00;2.80;;;21.50;99.90;;;;;;4926503;29;21022;-70
2021/07/29 09:32:09;;;;;;;2.97;2.70;;;21.50;99.90;;;;;;4933190;29;21154;-70
2021/07/29 09:34:43;;;;;;;3.53;2.90;;;21.70;99.90;;;;;;4934467;29;20505;-71
2021/07/29 09:37:10;;;;;;;3.37;3.07;;;21.70;99.90;;;;;;4918896;29;20558;-71
2021/07/29 09:39:39;;;;;;;1.83;1.83;;;21.80;99.90;;;;;;4915742;29;20478;-72
2021/07/29 09:42:16;;;;;;;4.20;2.47;;;21.80;99.90;;;;;;4915030;29;20550;-71
2021/07/29 09:44:45;;;;;;;2.30;2.20;;;21.70;99.90;;;;;;4915996;29;20565;-71
2021/07/29 09:47:12;;;;;;;2.80;2.80;;;21.60;99.90;;;;;;4919427;29;20470;-72
2021/07/29 09:49:40;;;;;;;2.17;2.10;;;21.60;99.90;;;;;;4934959;29;20476;-71
2021/07/29 09:52:08;;;;;;;2.73;2.53;;;21.70;99.90;;;;;;4920426;29;20490;-71
2021/07/29 09:54:39;;;;;;;1.93;1.93;;;21.90;99.90;;;;;;4930218;29;20497;-71
2021/07/29 09:57:07;;;;;;;2.53;2.20;;;21.90;99.90;;;;;;4914946;29;20947;-69
2021/07/29 09:59:33;;;;;;;2.57;2.30;;;22.10;99.90;;;;;;4915819;29;20509;-69
2021/07/29 10:02:02;;;;;;;2.43;2.23;;;22.10;99.90;;;;;;4918891;29;20606;-71
2021/07/29 10:04:34;;;;;;;2.90;2.67;;;22.00;99.90;;;;;;4934083;29;20516;-70
2021/07/29 10:07:04;;;;;;;2.60;2.40;;;21.90;99.90;;;;;;4916914;29;20838;-70
2021/07/29 10:09:34;;;;;;;4.73;3.17;;;21.70;99.90;;;;;;4915040;29;20489;-69
2021/07/29 10:12:02;;;;;;;3.10;2.90;;;21.70;99.90;;;;;;4924271;29;20489;-72
2021/07/29 10:14:50;;;;;;;2.93;2.90;;;21.70;99.90;;;;;;4919339;29;20487;-72
2021/07/29 10:17:17;;;;;;;3.77;2.27;;;21.80;99.90;;;;;;4926927;29;20498;-71
2021/07/29 10:20:16;;;;;;;2.70;2.50;;;21.80;99.90;;;;;;4915364;29;20554;-71
2021/07/29 10:22:43;;;;;;;4.33;2.70;;;21.90;99.90;;;;;;4929927;29;20493;-72
2021/07/29 10:25:10;;;;;;;2.23;2.13;;;22.00;99.90;;;;;;4920684;29;20529;-72
2021/07/29 10:27:38;;;;;;;1.90;1.80;;;22.00;99.90;;;;;;4914799;29;20486;-71
2021/07/29 10:30:36;;;;;;;2.40;2.20;;;21.90;99.90;;;;;;4927423;29;20875;-71
2021/07/29 10:33:17;;;;;;;4.60;2.37;;;21.80;99.90;;;;;;4916155;29;20469;-72
2021/07/29 10:35:44;;;;;;;2.10;2.10;;;21.90;99.90;;;;;;4918809;29;20475;-70
2021/07/29 10:38:11;;;;;;;2.47;2.30;;;22.10;99.90;;;;;;4914574;29;20478;-71
2021/07/29 10:40:39;;;;;;;1.67;1.67;;;22.20;99.90;;;;;;4915661;29;20837;-71
2021/07/29 10:43:41;;;;;;;2.17;2.07;;;22.30;99.90;;;;;;4932431;29;20500;-71
2021/07/29 10:46:09;;;;;;;2.87;2.07;;;22.20;99.90;;;;;;4921871;29;20536;-70
2021/07/29 10:51:35;;;;;;;1.90;1.80;;;22.30;99.90;;;;;;4917210;29;20569;-71
2021/07/29 10:54:03;;;;;;;2.30;2.20;;;22.30;99.90;;;;;;4914033;29;20480;-71
2021/07/29 10:56:29;;;;;;;2.00;1.90;;;22.50;99.90;;;;;;4915281;29;20958;-71
2021/07/29 10:58:58;;;;;;;2.33;2.23;;;22.80;99.90;;;;;;4917425;29;20972;-70
2021/07/29 11:01:46;;;;;;;1.80;1.80;;;22.90;99.90;;;;;;4931238;29;20497;-70
2021/07/29 11:04:13;;;;;;;1.97;1.67;;;23.00;99.90;;;;;;4930268;29;20548;-70
2021/07/29 11:06:42;;;;;;;1.83;1.73;;;22.90;99.90;;;;;;4932610;29;20469;-70
2021/07/29 11:09:11;;;;;;;1.90;1.80;;;22.80;99.90;;;;;;4935868;29;20856;-70
2021/07/29 11:11:38;;;;;;;4.20;1.93;;;22.60;99.90;;;;;;4928085;29;20489;-70
2021/07/29 11:14:07;;;;;;;1.67;1.53;;;22.60;99.90;;;;;;4920328;29;20484;-70
2021/07/29 11:16:34;;;;;;;2.00;1.90;;;22.60;99.90;;;;;;4919182;29;20478;-70
2021/07/29 11:19:03;;;;;;;8.37;2.47;;;22.80;99.90;;;;;;4918700;29;20477;-71
2021/07/29 11:21:29;;;;;;;2.13;1.77;;;22.70;99.90;;;;;;4916466;29;20580;-70
2021/07/29 11:23:56;;;;;;;1.67;1.57;;;22.70;99.90;;;;;;4917580;29;20962;-70
2021/07/29 11:26:23;;;;;;;1.83;1.73;;;22.70;99.90;;;;;;4932118;29;20529;-70
2021/07/29 11:29:08;;;;;;;2.67;2.07;;;22.90;99.90;;;;;;4937635;29;20469;-70
2021/07/29 11:31:35;;;;;;;2.10;2.00;;;22.90;99.90;;;;;;4933379;29;20489;-70
2021/07/29 11:34:02;;;;;;;2.40;1.70;;;23.10;99.90;;;;;;4917576;29;20533;-70
2021/07/29 11:36:32;;;;;;;3.50;2.27;;;23.10;99.90;;;;;;4917250;29;20471;-70
2021/07/29 11:39:00;;;;;;;3.83;1.97;;;23.10;99.90;;;;;;4917736;29;20834;-69
2021/07/29 11:41:27;;;;;;;2.27;2.20;;;23.10;99.90;;;;;;4924552;29;20521;-71
2021/07/29 11:43:55;;;;;;;1.67;1.60;;;23.00;99.90;;;;;;4917562;29;21160;-69
2021/07/29 11:46:23;;;;;;;2.00;1.60;;;22.80;99.90;;;;;;4924689;29;20469;-69
2021/07/29 11:49:02;;;;;;;1.50;1.50;;;22.60;99.90;;;;;;4937365;29;20969;-69
2021/07/29 11:51:28;;;;;;;1.80;1.70;;;22.50;99.90;;;;;;4927459;29;20571;-70
2021/07/29 11:53:55;;;;;;;2.93;1.83;;;22.60;99.90;;;;;;4918854;29;20483;-70
2021/07/29 11:56:22;;;;;;;2.23;2.13;;;22.70;99.90;;;;;;4929675;29;20553;-70
2021/07/29 11:58:57;;;;;;;3.57;2.03;;;22.70;99.90;;;;;;4937411;29;20465;-70
2021/07/29 12:01:26;;;;;;;1.83;1.77;;;22.80;99.90;;;;;;4919872;29;20497;-71
2021/07/29 12:03:54;;;;;;;2.07;1.97;;;22.80;99.90;;;;;;4916823;29;20620;-71
2021/07/29 12:06:25;;;;;;;1.77;1.77;;;22.90;99.90;;;;;;4917808;29;20533;-71
2021/07/29 12:08:54;;;;;;;1.93;1.83;;;23.10;99.90;;;;;;4916566;29;20477;-71
2021/07/29 12:11:21;;;;;;;1.77;1.67;;;23.30;99.90;;;;;;4923686;29;20544;-72
2021/07/29 12:13:49;;;;;;;2.00;1.77;;;23.40;99.90;;;;;;4915764;29;20514;-71
2021/07/29 12:16:15;;;;;;;1.90;1.57;;;23.50;99.90;;;;;;4921026;29;20481;-71
2021/07/29 12:18:46;;;;;;;1.63;1.53;;;23.50;98.90;;;;;;4920553;29;20496;-71
2021/07/29 12:21:13;;;;;;;1.60;1.60;;;23.30;98.60;;;;;;4924039;29;20493;-69
2021/07/29 12:23:50;;;;;;;1.70;1.70;;;23.30;97.60;;;;;;4927565;29;20589;-71
2021/07/29 12:26:16;;;;;;;1.67;1.57;;;23.40;98.10;;;;;;4933641;29;20496;-69
2021/07/29 12:28:45;;;;;;;3.30;1.77;;;23.40;98.30;;;;;;4936349;29;20473;-70
2021/07/29 12:31:19;;;;;;;2.03;1.93;;;23.30;98.60;;;;;;4931974;29;20499;-70
2021/07/29 12:33:52;;;;;;;1.93;1.83;;;23.30;98.50;;;;;;4918519;29;20470;-70
2021/07/29 12:36:20;;;;;;;1.50;1.40;;;23.20;98.80;;;;;;4919658;29;20488;-70
2021/07/29 12:38:56;;;;;;;3.67;1.50;;;23.40;99.20;;;;;;4936032;29;20493;-70
2021/07/29 12:41:30;;;;;;;2.03;1.90;;;23.60;98.20;;;;;;4935380;29;20497;-69
2021/07/29 12:44:11;;;;;;;3.87;1.73;;;23.60;98.00;;;;;;4916547;29;20573;-70
2021/07/29 12:46:38;;;;;;;2.33;1.77;;;23.50;98.30;;;;;;4916707;29;20982;-70
2021/07/29 12:49:07;;;;;;;1.87;1.77;;;23.60;98.00;;;;;;4917576;29;20824;-71
2021/07/29 12:51:38;;;;;;;1.50;1.50;;;23.40;97.40;;;;;;4934661;29;20853;-71
2021/07/29 12:54:06;;;;;;;1.87;1.80;;;23.10;97.80;;;;;;4922849;29;20797;-70
2021/07/29 12:56:34;;;;;;;2.40;1.70;;;22.90;98.60;;;;;;4916749;29;20468;-71
2021/07/29 12:59:01;;;;;;;1.93;1.80;;;22.60;99.10;;;;;;4916786;29;20470;-71
2021/07/29 13:01:28;;;;;;;1.87;1.77;;;22.40;99.90;;;;;;4915090;29;20860;-70
2021/07/29 13:03:55;;;;;;;2.27;2.00;;;22.10;99.90;;;;;;4917683;29;20555;-70
2021/07/29 13:06:24;;;;;;;2.30;2.10;;;21.80;99.90;;;;;;4916613;29;20467;-70
2021/07/29 13:08:53;;;;;;;2.27;2.03;;;21.70;99.90;;;;;;4930397;29;20477;-70
2021/07/29 13:11:20;;;;;;;1.90;1.80;;;21.60;99.90;;;;;;4928253;29;20494;-70
2021/07/29 13:13:48;;;;;;;2.77;2.57;;;21.50;99.90;;;;;;4931537;29;20485;-71
2021/07/29 13:16:14;;;;;;;3.13;2.70;;;21.40;99.90;;;;;;4935681;29;20573;-70
2021/07/29 13:18:41;;;;;;;2.87;2.47;;;21.40;99.90;;;;;;4934496;29;20958;-70
2021/07/29 13:21:08;;;;;;;2.67;2.50;;;21.50;99.90;;;;;;4928395;29;20574;-70
2021/07/29 13:23:37;;;;;;;4.57;3.60;;;21.70;99.90;;;;;;4929509;29;20492;-70
2021/07/29 13:26:04;;;;;;;2.63;2.43;;;21.80;99.90;;;;;;4918077;29;20490;-70
2021/07/29 13:28:31;;;;;;;2.50;2.30;;;21.90;99.90;;;;;;4916894;29;20465;-70
2021/07/29 13:31:01;;;;;;;5.10;2.50;;;22.00;99.90;;;;;;4928316;29;20516;-70
2021/07/29 13:33:27;;;;;;;2.47;2.27;;;21.90;99.90;;;;;;4915296;29;20472;-70
2021/07/29 13:35:54;;;;;;;3.23;2.80;;;21.90;99.90;;;;;;4924756;29;20473;-69
2021/07/29 13:38:21;;;;;;;2.30;2.20;;;21.90;99.90;;;;;;4935256;29;20474;-70
2021/07/29 13:40:50;;;;;;;4.80;3.03;;;21.90;99.90;;;;;;4924687;29;20502;-71
2021/07/29 13:43:17;;;;;;;2.20;2.10;;;21.80;99.90;;;;;;4914968;29;20494;-69
2021/07/29 13:45:43;;;;;;;2.00;1.90;;;21.70;99.90;;;;;;4916468;29;20490;-70
2021/07/29 13:48:10;;;;;;;2.60;2.40;;;21.50;99.90;;;;;;4926823;29;20475;-70
2021/07/29 13:50:40;;;;;;;3.00;2.70;;;21.20;99.90;;;;;;4914908;29;20990;-69
2021/07/29 13:53:07;;;;;;;2.60;2.40;;;20.70;99.90;;;;;;4920060;29;20470;-70
2021/07/29 13:55:34;;;;;;;2.83;2.30;;;20.00;99.90;;;;;;4926917;29;20963;-69
2021/07/29 13:58:02;;;;;;;2.90;2.57;;;19.50;99.90;;;;;;4926575;29;20985;-70
2021/07/29 14:00:29;;;;;;;2.37;2.27;;;19.20;99.90;;;;;;4916685;29;21018;-69
2021/07/29 14:02:56;;;;;;;2.53;2.53;;;19.00;99.90;;;;;;4924823;29;20494;-70
2021/07/29 14:05:22;;;;;;;2.00;2.00;;;19.00;99.90;;;;;;4915688;29;20482;-70
2021/07/29 14:07:49;;;;;;;2.60;2.40;;;19.10;99.90;;;;;;4933290;29;21033;-70
2021/07/29 14:10:17;;;;;;;2.93;2.60;;;19.30;99.90;;;;;;4933088;28;20483;-68
2021/07/29 14:12:44;;;;;;;3.90;2.40;;;19.60;99.90;;;;;;4923072;29;20883;-70
2021/07/29 14:15:13;;;;;;;2.20;2.10;;;19.90;99.90;;;;;;4919565;29;20584;-70
2021/07/29 14:17:44;;;;;;;2.27;2.13;;;20.20;99.90;;;;;;4915938;29;20466;-70
2021/07/29 14:20:25;;;;;;;3.50;2.47;;;20.30;99.90;;;;;;4921780;29;20489;-69
2021/07/29 14:23:04;;;;;;;2.27;2.20;;;20.40;99.90;;;;;;4914073;29;21001;-69
2021/07/29 14:25:32;;;;;;;3.17;2.87;;;20.40;99.90;;;;;;4914258;29;20478;-70
2021/07/29 14:28:00;;;;;;;2.80;2.50;;;20.30;99.90;;;;;;4915689;29;20474;-70
2021/07/29 14:30:28;;;;;;;2.40;2.20;;;20.30;99.90;;;;;;4922716;29;20580;-70
2021/07/29 14:32:55;;;;;;;4.40;2.20;;;20.50;99.90;;;;;;4918795;29;20471;-70
2021/07/29 14:35:22;;;;;;;2.20;2.20;;;20.70;99.90;;;;;;4915594;29;20566;-70
2021/07/29 14:37:49;;;;;;;2.70;2.70;;;20.70;99.90;;;;;;4916740;29;20971;-68
2021/07/29 14:40:16;;;;;;;2.53;2.43;;;20.80;99.90;;;;;;4916908;29;20466;-67
2021/07/29 14:42:43;;;;;;;4.40;3.00;;;20.80;99.90;;;;;;4933730;29;20493;-69
2021/07/29 14:45:24;;;;;;;3.43;3.10;;;20.70;99.90;;;;;;4933685;29;20470;-68
2021/07/29 14:50:36;;;;;;;3.40;3.07;;;20.30;99.90;;;;;;4926087;29;20485;-68
2021/07/29 14:56:04;;;;;;;3.23;3.03;;;20.60;99.90;;;;;;4920111;29;20630;-68
2021/07/29 16:07:26;;;;;;;3.00;2.90;;;21.70;99.90;;;;;;4935524;29;20453;-70
2021/07/29 16:09:54;;;;;;;3.57;3.37;;;21.70;99.90;;;;;;4922022;29;21153;-68
2021/07/29 16:12:21;;;;;;;3.33;3.17;;;21.60;99.90;;;;;;4936137;29;20806;-68
2021/07/29 16:14:48;;;;;;;5.20;3.33;;;21.40;99.90;;;;;;4921712;29;20497;-68
2021/07/29 16:17:15;;;;;;;5.73;5.00;;;21.30;99.90;;;;;;4917600;29;20534;-69
2021/07/29 16:19:42;;;;;;;3.87;3.57;;;21.40;99.90;;;;;;4929545;29;20474;-70
2021/07/29 16:22:10;;;;;;;3.57;3.27;;;21.50;99.90;;;;;;4916309;29;21013;-68
2021/07/29 16:24:36;;;;;;;4.40;4.17;;;21.50;99.90;;;;;;4928844;29;20481;-68
2021/07/29 16:27:05;;;;;;;3.83;3.63;;;21.40;99.90;;;;;;4933407;29;20471;-69
2021/07/29 16:29:32;;;;;;;3.67;3.47;;;21.20;99.90;;;;;;4931466;29;20481;-69
2021/07/29 16:31:58;;;;;;;3.90;3.70;;;21.00;99.90;;;;;;4917342;29;20495;-69
2021/07/29 16:34:26;;;;;;;3.90;3.80;;;21.00;99.90;;;;;;4923945;29;20457;-69
2021/07/29 16:36:53;;;;;;;4.30;3.90;;;21.00;99.90;;;;;;4920924;29;20494;-69
2021/07/29 16:39:19;;;;;;;3.70;3.47;;;21.10;99.90;;;;;;4919578;29;20959;-68
2021/07/29 16:41:52;;;;;;;4.77;3.73;;;21.20;99.90;;;;;;4935949;29;20951;-70
2021/07/29 16:44:20;;;;;;;4.93;3.40;;;21.30;99.90;;;;;;4936377;29;20493;-69
2021/07/29 16:46:47;;;;;;;4.33;3.47;;;21.30;99.90;;;;;;4936119;29;20470;-69
2021/07/29 16:49:13;;;;;;;3.17;2.97;;;21.30;99.90;;;;;;4936298;29;20478;-69
2021/07/29 16:51:40;;;;;;;5.40;3.77;;;21.20;99.90;;;;;;4919758;29;20855;-70
2021/07/29 16:54:06;;;;;;;4.07;3.80;;;21.20;99.90;;;;;;4916270;29;20530;-70
2021/07/29 16:56:34;;;;;;;3.43;3.13;;;21.20;99.90;;;;;;4921109;29;20473;-69
2021/07/29 16:59:01;;;;;;;3.43;3.33;;;21.10;99.90;;;;;;4921924;29;20478;-71
2021/07/29 17:01:31;;;;;;;3.93;3.60;;;21.00;99.90;;;;;;4921455;29;20568;-70
2021/07/29 17:03:58;;;;;;;2.90;2.80;;;20.90;99.90;;;;;;4915441;29;20486;-70
2021/07/29 17:06:24;;;;;;;5.10;3.27;;;20.80;99.90;;;;;;4915252;29;20470;-70
2021/07/29 17:08:51;;;;;;;3.13;2.93;;;20.80;99.90;;;;;;4916617;29;20569;-70
2021/07/29 17:11:18;;;;;;;3.37;3.27;;;20.90;99.90;;;;;;4917030;29;20490;-70
2021/07/29 17:13:45;;;;;;;3.60;3.40;;;21.10;99.90;;;;;;4927971;29;20461;-69
2021/07/29 17:16:12;;;;;;;3.03;2.83;;;21.20;99.90;;;;;;4931501;29;20504;-70
2021/07/29 17:18:40;;;;;;;2.93;2.70;;;21.10;99.90;;;;;;4916813;29;20466;-69
2021/07/29 17:21:07;;;;;;;3.20;3.00;;;21.00;99.90;;;;;;4922622;29;20482;-69
2021/07/29 17:23:37;;;;;;;4.47;3.20;;;20.90;99.90;;;;;;4923061;29;20962;-69
2021/07/29 17:26:04;;;;;;;2.27;2.10;;;20.90;99.90;;;;;;4918111;29;20474;-69
2021/07/29 17:28:31;;;;;;;4.37;3.03;;;20.80;99.90;;;;;;4934694;29;20465;-69
2021/07/29 17:30:57;;;;;;;4.73;2.90;;;20.80;99.90;;;;;;4927423;29;20506;-68
2021/07/29 17:33:25;;;;;;;3.17;2.97;;;20.80;99.90;;;;;;4915915;29;20467;-69
2021/07/29 17:35:53;;;;;;;4.43;3.30;;;20.90;99.90;;;;;;4916966;29;20502;-69
2021/07/29 17:38:21;;;;;;;3.10;2.57;;;21.00;99.90;;;;;;4934875;29;20462;-69
2021/07/29 17:40:47;;;;;;;2.43;2.33;;;21.00;99.90;;;;;;4916091;29;20509;-70
2021/07/29 17:43:14;;;;;;;4.50;2.20;;;21.00;99.90;;;;;;4915523;29;20490;-70
2021/07/29 17:45:41;;;;;;;3.23;2.80;;;20.90;99.90;;;;;;4932774;29;20461;-70
2021/07/29 17:48:07;;;;;;;2.97;2.77;;;20.80;99.90;;;;;;4918489;29;20471;-70
2021/07/29 17:50:34;;;;;;;2.63;2.47;;;20.70;99.90;;;;;;4930788;29;20489;-70
2021/07/29 17:53:02;;;;;;;3.30;2.37;;;20.60;99.90;;;;;;4917944;29;20826;-70
2021/07/29 17:55:29;;;;;;;3.63;2.83;;;20.50;99.90;;;;;;4923965;29;20457;-71
2021/07/29 17:57:56;;;;;;;4.47;2.43;;;20.50;99.90;;;;;;4921320;29;20462;-71
2021/07/29 18:00:22;;;;;;;2.57;2.37;;;20.50;99.90;;;;;;4922252;29;20466;-70
2021/07/29 18:02:49;;;;;;;2.13;2.03;;;20.40;99.90;;;;;;4927006;29;20477;-69
2021/07/29 18:05:16;;;;;;;5.10;2.40;;;20.40;99.90;;;;;;4936663;29;20901;-71
2021/07/29 18:07:42;;;;;;;2.60;2.40;;;20.40;99.90;;;;;;4934350;29;20528;-70
2021/07/29 18:10:11;;;;;;;3.33;2.40;;;20.40;99.90;;;;;;4928444;29;20574;-71
2021/07/29 18:12:38;;;;;;;3.70;3.17;;;20.40;99.90;;;;;;4920046;29;20466;-70